Terminal Aerodrome Forecast
Issued by NWS Shreveport, LA

Home | Current Version | Previous Version | Text Only | Print | Product List | Glossary On
Versions: 1 2 3 4 5 6 7 8 9 10 11 12 13 14 15 16 17 18 19 20 21 22 23
000
FTUS44 KSHV 252300
TAFSHV
TAF
KSHV 252321Z 2600/2624 VRB03KT P6SM SKC
     FM260600 19004KT P6SM BKN250
     FM261500 23013G21KT P6SM SCT250
     FM261800 28014G23KT P6SM SKC
     FM262300 31010KT P6SM SKC=

USA.gov is the U.S. government's official web portal to all federal, state and local government web resources and services.